createdAt,value
2023-03-19T00:01:16.808Z,86.21
2023-03-19T00:03:49.844Z,87.49
2023-03-19T00:06:23.838Z,87.49
2023-03-19T00:08:56.874Z,87.49
2023-03-19T00:11:30.020Z,87.45
2023-03-19T00:14:03.286Z,87.58
2023-03-19T00:16:37.722Z,87.86
2023-03-19T00:19:10.902Z,87.74
2023-03-19T00:21:44.036Z,87.39
2023-03-19T00:24:17.528Z,88.32
2023-03-19T00:26:51.015Z,88.55
2023-03-19T00:29:24.357Z,88.62
2023-03-19T00:31:58.728Z,89.07
2023-03-19T00:34:31.830Z,89.47
2023-03-19T00:37:05.276Z,89.29
2023-03-19T00:39:38.519Z,89.49
2023-03-19T00:42:12.002Z,89.59
2023-03-19T00:44:45.096Z,89.87
2023-03-19T00:47:19.683Z,89.38
2023-03-19T00:49:52.717Z,89.35
2023-03-19T00:52:25.828Z,89.34
2023-03-19T00:54:58.879Z,89.55
2023-03-19T00:57:31.953Z,89.82
2023-03-19T01:00:06.370Z,89.86
2023-03-19T01:02:40.825Z,90.29
2023-03-19T01:05:13.998Z,90.08
2023-03-19T01:07:47.203Z,90.03
2023-03-19T01:10:20.598Z,90.12
2023-03-19T01:12:53.825Z,90.20
2023-03-19T01:15:26.920Z,89.94
2023-03-19T01:18:01.340Z,89.86
2023-03-19T01:20:34.603Z,90.24
2023-03-19T01:23:08.606Z,89.54
2023-03-19T01:25:41.673Z,89.33
2023-03-19T01:28:14.787Z,89.60
2023-03-19T01:30:48.055Z,89.48
2023-03-19T01:33:25.462Z,88.46
2023-03-19T01:35:59.588Z,89.33
2023-03-19T01:38:33.280Z,89.95
2023-03-19T01:41:07.554Z,90.19
2023-03-19T01:43:40.708Z,90.09
2023-03-19T01:46:24.308Z,90.43
2023-03-19T01:49:01.434Z,90.27
2023-03-19T01:51:41.035Z,90.36
2023-03-19T01:54:17.966Z,91.00
2023-03-19T01:56:54.759Z,90.60
2023-03-19T01:59:31.718Z,90.70
2023-03-19T02:02:11.054Z,90.90
2023-03-19T02:04:48.535Z,90.68
2023-03-19T02:07:22.457Z,90.58
2023-03-19T02:09:55.966Z,90.03
2023-03-19T02:12:29.332Z,90.59
2023-03-19T02:15:02.452Z,90.44
2023-03-19T02:17:35.952Z,90.41
2023-03-19T02:20:19.377Z,90.41
2023-03-19T02:23:04.146Z,90.40
2023-03-19T02:25:44.615Z,90.81
2023-03-19T02:28:22.276Z,91.36
2023-03-19T02:30:55.536Z,92.16
2023-03-19T02:33:28.741Z,93.03
2023-03-19T02:36:04.462Z,94.39
2023-03-19T02:38:38.924Z,94.49
2023-03-19T02:41:12.430Z,94.41
2023-03-19T02:43:47.002Z,94.48
2023-03-19T02:46:20.101Z,95.01
2023-03-19T02:48:53.715Z,95.16
2023-03-19T02:51:27.266Z,95.30
2023-03-19T02:54:00.940Z,95.55
2023-03-19T02:56:34.096Z,95.70
2023-03-19T02:59:09.454Z,96.12
2023-03-19T03:01:42.673Z,96.27
2023-03-19T03:04:16.738Z,96.27
2023-03-19T03:06:49.762Z,96.97
2023-03-19T03:09:22.811Z,96.74
2023-03-19T03:11:55.964Z,97.91
2023-03-19T03:14:30.715Z,98.45
2023-03-19T03:17:03.755Z,98.83
2023-03-19T03:19:37.435Z,99.46
2023-03-19T03:22:10.951Z,99.78
2023-03-19T03:24:44.175Z,100.00
2023-03-19T03:27:17.320Z,99.39
2023-03-19T03:29:52.140Z,99.61
2023-03-19T03:32:25.333Z,99.63
2023-03-19T03:34:58.467Z,99.91
2023-03-19T03:37:31.874Z,100.00
2023-03-19T03:40:09.020Z,100.00
2023-03-19T03:42:42.058Z,100.00
2023-03-19T03:45:16.700Z,100.00
2023-03-19T03:47:49.746Z,100.00
2023-03-19T03:50:22.785Z,100.00
2023-03-19T03:52:55.933Z,100.00
2023-03-19T03:55:29.239Z,100.00
2023-03-19T03:58:02.927Z,100.00
2023-03-19T04:00:37.414Z,100.00
2023-03-19T04:03:10.530Z,100.00
2023-03-19T04:05:44.548Z,100.00
2023-03-19T04:08:18.023Z,100.00
2023-03-19T04:10:51.180Z,100.00
2023-03-19T04:13:24.283Z,100.00
2023-03-19T04:15:58.653Z,100.00
2023-03-19T04:18:31.695Z,100.00
2023-03-19T04:21:05.622Z,100.00
2023-03-19T04:23:38.655Z,100.00
2023-03-19T04:26:12.258Z,100.00
2023-03-19T04:28:45.696Z,100.00
2023-03-19T04:31:20.129Z,100.00
2023-03-19T04:33:53.456Z,100.00
2023-03-19T04:36:26.583Z,100.00
2023-03-19T04:38:59.741Z,100.00
2023-03-19T04:41:33.151Z,100.00
2023-03-19T04:44:06.341Z,100.00
2023-03-19T04:46:40.817Z,100.00
2023-03-19T04:49:14.247Z,100.00
2023-03-19T04:51:47.391Z,100.00
2023-03-19T04:54:20.509Z,100.00
2023-03-19T04:56:53.978Z,100.00
2023-03-19T04:59:27.293Z,100.00
2023-03-19T05:02:01.667Z,100.00
2023-03-19T05:04:34.910Z,100.00
2023-03-19T05:07:08.429Z,100.00
2023-03-19T05:09:43.166Z,100.00
2023-03-19T05:12:16.249Z,100.00
2023-03-19T05:14:49.370Z,100.00
2023-03-19T05:17:23.721Z,100.00
2023-03-19T05:19:57.090Z,100.00
2023-03-19T05:22:30.110Z,100.00
2023-03-19T05:25:03.146Z,100.00
2023-03-19T05:27:36.234Z,100.00
2023-03-19T05:30:11.108Z,100.00
2023-03-19T05:32:47.085Z,100.00
2023-03-19T05:35:20.305Z,100.00
2023-03-19T05:37:53.396Z,100.00
2023-03-19T05:40:26.717Z,100.00
2023-03-19T05:42:59.785Z,100.00
2023-03-19T05:45:32.848Z,100.00
2023-03-19T05:48:09.003Z,100.00
2023-03-19T05:50:42.533Z,100.00
2023-03-19T05:53:15.679Z,100.00
2023-03-19T05:55:48.728Z,100.00
2023-03-19T05:58:21.968Z,100.00
2023-03-19T06:00:56.532Z,100.00
2023-03-19T06:03:30.937Z,100.00
2023-03-19T06:06:04.190Z,100.00
2023-03-19T06:08:37.461Z,100.00
2023-03-19T06:11:10.880Z,100.00
2023-03-19T06:13:44.404Z,100.00
2023-03-19T06:16:17.597Z,100.00
2023-03-19T06:18:52.020Z,100.00
2023-03-19T06:21:29.448Z,100.00
2023-03-19T06:24:02.475Z,100.00
2023-03-19T06:26:35.861Z,100.00
2023-03-19T06:29:08.993Z,100.00
2023-03-19T06:31:42.054Z,100.00
2023-03-19T06:34:16.588Z,100.00
2023-03-19T06:36:49.601Z,100.00
2023-03-19T06:39:22.947Z,100.00
2023-03-19T06:41:56.014Z,100.00
2023-03-19T06:44:29.136Z,100.00
2023-03-19T06:47:02.183Z,100.00
2023-03-19T06:49:36.553Z,100.00
2023-03-19T06:52:09.623Z,100.00
2023-03-19T06:54:42.670Z,100.00
2023-03-19T06:57:15.822Z,100.00
2023-03-19T06:59:48.894Z,100.00
2023-03-19T07:02:22.227Z,100.00
2023-03-19T07:04:56.613Z,100.00
2023-03-19T07:07:29.773Z,100.00
2023-03-19T07:10:02.949Z,100.00
2023-03-19T07:12:36.202Z,100.00
2023-03-19T07:15:10.023Z,100.00
2023-03-19T07:17:44.841Z,100.00
2023-03-19T07:20:19.705Z,100.00
2023-03-19T07:22:52.908Z,100.00
2023-03-19T07:25:26.035Z,100.00
2023-03-19T07:27:59.150Z,100.00
2023-03-19T07:30:32.996Z,100.00
2023-03-19T07:33:07.333Z,100.00
2023-03-19T07:35:42.067Z,100.00
2023-03-19T07:38:15.735Z,100.00
2023-03-19T07:41:01.470Z,100.00
2023-03-19T07:43:35.965Z,100.00
2023-03-19T07:46:09.052Z,100.00
2023-03-19T07:48:42.158Z,100.00
2023-03-19T07:51:16.550Z,100.00
2023-03-19T07:53:50.167Z,100.00
2023-03-19T07:56:23.296Z,100.00
2023-03-19T07:58:56.449Z,100.00
2023-03-19T08:01:29.477Z,100.00
2023-03-19T08:04:02.559Z,100.00
2023-03-19T08:06:38.460Z,100.00
2023-03-19T08:09:11.888Z,100.00
2023-03-19T08:11:44.884Z,100.00
2023-03-19T08:14:22.438Z,100.00
2023-03-19T08:16:55.572Z,100.00
2023-03-19T08:19:28.808Z,100.00
2023-03-19T08:22:03.286Z,100.00
2023-03-19T08:24:36.530Z,100.00
2023-03-19T08:27:10.128Z,100.00
2023-03-19T08:29:43.166Z,100.00
2023-03-19T08:32:16.335Z,100.00
2023-03-19T08:34:49.866Z,100.00
2023-03-19T08:37:24.326Z,100.00
2023-03-19T08:39:57.482Z,100.00
2023-03-19T08:42:30.628Z,100.00
2023-03-19T08:45:03.760Z,100.00
2023-03-19T08:47:36.985Z,100.00
2023-03-19T08:50:12.205Z,100.00
2023-03-19T08:52:46.802Z,100.00
2023-03-19T08:55:19.891Z,100.00
2023-03-19T08:57:52.985Z,100.00
2023-03-19T09:00:26.282Z,100.00
2023-03-19T09:02:59.378Z,100.00
2023-03-19T09:05:32.374Z,100.00
2023-03-19T09:08:07.577Z,100.00
2023-03-19T09:10:40.996Z,100.00
2023-03-19T09:13:14.012Z,100.00
2023-03-19T09:15:47.926Z,100.00
2023-03-19T09:18:23.990Z,100.00
2023-03-19T09:20:57.150Z,100.00
2023-03-19T09:23:31.531Z,100.00
2023-03-19T09:26:04.878Z,100.00
2023-03-19T09:28:38.070Z,100.00
2023-03-19T09:31:11.850Z,100.00
2023-03-19T09:33:45.044Z,100.00
2023-03-19T09:36:18.846Z,100.00
2023-03-19T09:38:53.397Z,100.00
2023-03-19T09:41:36.922Z,100.00
2023-03-19T09:44:14.585Z,100.00
2023-03-19T09:46:54.864Z,100.00
2023-03-19T09:49:32.504Z,98.79
2023-03-19T09:52:19.194Z,99.95
2023-03-19T09:54:56.636Z,95.83
2023-03-19T09:57:29.981Z,94.65
2023-03-19T10:00:06.744Z,94.21
2023-03-19T10:02:43.883Z,93.25
2023-03-19T10:05:25.490Z,91.02
2023-03-19T10:08:27.772Z,87.77
2023-03-19T10:11:31.731Z,86.86
2023-03-19T10:14:23.143Z,85.02
2023-03-19T10:17:00.327Z,82.89
2023-03-19T10:19:41.919Z,81.09
2023-03-19T10:22:20.628Z,78.64
2023-03-19T10:24:55.858Z,75.10
2023-03-19T10:27:30.505Z,73.53
2023-03-19T10:30:03.624Z,74.39
2023-03-19T10:32:43.033Z,73.92
2023-03-19T10:35:23.208Z,68.69
2023-03-19T10:37:56.221Z,68.46
2023-03-19T10:40:39.815Z,63.13
2023-03-19T10:43:21.564Z,65.10
2023-03-19T10:45:54.605Z,68.20
2023-03-19T10:48:29.176Z,62.15
2023-03-19T10:51:05.930Z,59.89
2023-03-19T10:53:41.752Z,57.89
2023-03-19T10:56:23.049Z,58.32
2023-03-19T10:59:06.879Z,55.67
2023-03-19T11:01:42.885Z,58.66
2023-03-19T11:04:20.891Z,59.71
2023-03-19T11:06:55.286Z,57.83
2023-03-19T11:09:35.774Z,56.79
2023-03-19T11:12:18.853Z,54.85
2023-03-19T11:14:55.409Z,56.69
2023-03-19T11:17:38.383Z,59.57
2023-03-19T11:20:24.676Z,57.96
2023-03-19T11:23:02.195Z,56.57
2023-03-19T11:25:40.105Z,56.41
2023-03-19T11:28:15.490Z,56.47
2023-03-19T11:30:58.306Z,56.40
2023-03-19T11:34:02.386Z,57.14
2023-03-19T11:36:44.149Z,53.85
2023-03-19T11:39:28.528Z,54.62
2023-03-19T11:42:36.935Z,54.09
2023-03-19T11:45:20.696Z,54.75
2023-03-19T11:48:12.361Z,54.63
2023-03-19T11:50:52.322Z,51.45
2023-03-19T11:53:29.531Z,52.31
2023-03-19T11:56:10.809Z,50.20
2023-03-19T11:59:14.466Z,51.80
2023-03-19T12:02:32.973Z,49.21
2023-03-19T12:05:32.952Z,49.86
2023-03-19T12:08:20.885Z,50.45
2023-03-19T12:11:05.142Z,50.04
2023-03-19T12:14:00.892Z,48.43
2023-03-19T12:16:51.111Z,49.46
2023-03-19T12:19:43.068Z,49.68
2023-03-19T12:22:30.259Z,49.85
2023-03-19T12:25:27.211Z,50.47
2023-03-19T12:28:11.803Z,48.83
2023-03-19T12:30:51.448Z,51.07
2023-03-19T12:33:41.153Z,50.42
2023-03-19T12:36:22.264Z,49.63
2023-03-19T12:39:02.969Z,50.22
2023-03-19T12:41:43.809Z,49.46
2023-03-19T12:44:24.472Z,48.72
2023-03-19T12:47:02.275Z,46.35
2023-03-19T12:49:40.466Z,46.86
2023-03-19T12:52:22.409Z,47.04
2023-03-19T12:55:04.614Z,45.80
2023-03-19T12:57:44.917Z,46.42
2023-03-19T13:00:27.323Z,45.93
2023-03-19T13:03:08.654Z,45.46
2023-03-19T13:05:46.227Z,43.98
2023-03-19T13:08:29.013Z,44.56
2023-03-19T13:11:07.765Z,43.35
2023-03-19T13:13:49.514Z,44.21
2023-03-19T13:16:37.605Z,44.22
2023-03-19T13:19:20.242Z,43.95
2023-03-19T13:21:56.774Z,44.30
2023-03-19T13:24:32.793Z,44.63
2023-03-19T13:27:10.742Z,44.12
2023-03-19T13:30:01.858Z,44.01
2023-03-19T13:32:42.404Z,43.36
2023-03-19T13:35:38.912Z,44.67
2023-03-19T13:38:22.678Z,45.40
2023-03-19T13:40:57.579Z,44.32
2023-03-19T13:43:56.438Z,45.26
2023-03-19T13:46:40.839Z,45.42
2023-03-19T13:49:29.648Z,45.79
2023-03-19T13:52:48.393Z,46.26
2023-03-19T13:55:34.377Z,48.35
2023-03-19T13:58:38.768Z,47.61
2023-03-19T14:01:36.696Z,48.10
2023-03-19T14:04:22.293Z,47.92
2023-03-19T14:06:58.427Z,49.09
2023-03-19T14:09:39.987Z,49.17
2023-03-19T14:12:26.722Z,49.07
2023-03-19T14:15:04.799Z,48.99
2023-03-19T14:17:42.583Z,49.38
2023-03-19T14:20:35.457Z,51.06
2023-03-19T14:23:38.524Z,52.97
2023-03-19T14:26:20.491Z,54.18
2023-03-19T14:29:03.780Z,54.48
2023-03-19T14:31:45.884Z,54.72
2023-03-19T14:34:26.005Z,55.65
2023-03-19T14:37:04.322Z,56.38
2023-03-19T14:39:43.142Z,57.26
2023-03-19T14:42:22.336Z,57.31
2023-03-19T14:45:44.855Z,56.37
2023-03-19T14:49:13.954Z,56.89
2023-03-19T14:52:05.889Z,57.68
2023-03-19T14:54:45.674Z,58.29
2023-03-19T14:57:21.266Z,58.35
2023-03-19T14:59:55.719Z,58.67
2023-03-19T15:02:37.907Z,58.26
2023-03-19T15:05:18.644Z,58.29
2023-03-19T15:07:57.988Z,58.91
2023-03-19T15:10:40.799Z,60.00
2023-03-19T15:13:29.263Z,61.02
2023-03-19T15:16:20.937Z,60.07
2023-03-19T15:18:54.421Z,59.79
2023-03-19T15:21:28.728Z,59.60
2023-03-19T15:24:04.648Z,59.86
2023-03-19T15:26:39.398Z,60.15
2023-03-19T15:29:13.629Z,60.47
2023-03-19T15:32:02.504Z,59.84
2023-03-19T15:34:39.461Z,60.48
2023-03-19T15:37:15.420Z,61.20
2023-03-19T15:39:53.354Z,60.71
2023-03-19T15:42:30.348Z,60.00
2023-03-19T15:45:09.458Z,60.36
2023-03-19T15:47:48.047Z,61.94
2023-03-19T15:50:25.096Z,65.28
2023-03-19T15:53:02.037Z,69.05
2023-03-19T15:55:37.780Z,72.49
2023-03-19T15:58:17.803Z,74.78
2023-03-19T16:00:54.066Z,77.09
2023-03-19T16:03:31.115Z,82.21
2023-03-19T16:06:07.020Z,86.03
2023-03-19T16:08:48.882Z,89.78
2023-03-19T16:11:31.524Z,93.67
2023-03-19T16:14:13.172Z,94.77
2023-03-19T16:16:48.875Z,97.21
2023-03-19T16:19:34.874Z,99.87
2023-03-19T16:22:15.602Z,100.00
2023-03-19T16:24:50.222Z,100.00
2023-03-19T16:27:35.923Z,100.00
2023-03-19T16:30:21.435Z,100.00
2023-03-19T16:33:01.962Z,100.00
2023-03-19T16:35:36.696Z,100.00
2023-03-19T16:38:15.473Z,100.00
2023-03-19T16:40:50.096Z,100.00
2023-03-19T16:43:25.881Z,100.00
2023-03-19T16:46:08.421Z,100.00
2023-03-19T16:48:41.696Z,100.00
2023-03-19T16:51:18.413Z,100.00
2023-03-19T16:53:51.734Z,100.00
2023-03-19T16:56:24.875Z,100.00
2023-03-19T16:59:02.723Z,100.00
2023-03-19T17:01:35.847Z,100.00
2023-03-19T17:04:17.415Z,100.00
2023-03-19T17:06:50.761Z,100.00
2023-03-19T17:09:24.002Z,100.00
2023-03-19T17:11:57.766Z,100.00
2023-03-19T17:14:33.922Z,100.00
2023-03-19T17:17:15.875Z,100.00
2023-03-19T17:19:49.465Z,100.00
2023-03-19T17:22:23.324Z,100.00
2023-03-19T17:24:56.568Z,100.00
2023-03-19T17:27:29.615Z,100.00
2023-03-19T17:30:04.395Z,100.00
2023-03-19T17:32:39.962Z,100.00
2023-03-19T17:35:17.468Z,100.00
2023-03-19T17:37:51.465Z,100.00
2023-03-19T17:40:27.626Z,100.00
2023-03-19T17:43:01.110Z,100.00
2023-03-19T17:45:35.686Z,100.00
2023-03-19T17:48:19.918Z,100.00
2023-03-19T17:50:55.666Z,100.00
2023-03-19T17:53:29.886Z,100.00
2023-03-19T17:56:03.230Z,100.00
2023-03-19T17:58:36.270Z,100.00
2023-03-19T18:01:16.254Z,100.00
2023-03-19T18:03:51.011Z,100.00
2023-03-19T18:06:26.328Z,100.00
2023-03-19T18:09:00.807Z,100.00
2023-03-19T18:11:33.931Z,100.00
2023-03-19T18:14:07.037Z,100.00
2023-03-19T18:16:42.145Z,100.00
2023-03-19T18:19:22.123Z,100.00
2023-03-19T18:21:55.241Z,100.00
2023-03-19T18:24:28.747Z,100.00
2023-03-19T18:27:01.853Z,100.00
2023-03-19T18:29:35.008Z,100.00
2023-03-19T18:32:15.848Z,100.00
2023-03-19T18:34:48.931Z,100.00
2023-03-19T18:37:23.456Z,100.00
2023-03-19T18:39:56.542Z,100.00
2023-03-19T18:42:29.825Z,100.00
2023-03-19T18:45:02.923Z,100.00
2023-03-19T18:47:37.491Z,100.00
2023-03-19T18:50:19.041Z,100.00
2023-03-19T18:52:54.347Z,100.00
2023-03-19T18:55:30.875Z,100.00
2023-03-19T18:58:04.364Z,100.00
2023-03-19T19:00:38.760Z,100.00
2023-03-19T19:03:17.111Z,100.00
2023-03-19T19:05:53.664Z,100.00
2023-03-19T19:08:29.810Z,100.00
2023-03-19T19:11:05.578Z,100.00
2023-03-19T19:13:55.188Z,100.00
2023-03-19T19:16:35.510Z,100.00
2023-03-19T19:19:18.558Z,100.00
2023-03-19T19:21:52.225Z,100.00
2023-03-19T19:24:25.356Z,100.00
2023-03-19T19:27:01.567Z,100.00
2023-03-19T19:29:35.302Z,100.00
2023-03-19T19:32:20.847Z,100.00
2023-03-19T19:34:55.453Z,100.00
2023-03-19T19:37:28.709Z,100.00
2023-03-19T19:40:01.749Z,100.00
2023-03-19T19:42:35.841Z,100.00
2023-03-19T19:45:37.930Z,100.00
2023-03-19T19:48:16.723Z,100.00
2023-03-19T19:50:52.048Z,100.00
2023-03-19T19:54:07.495Z,100.00
2023-03-19T19:56:41.330Z,100.00
2023-03-19T19:59:16.394Z,100.00
2023-03-19T20:01:49.549Z,100.00
2023-03-19T20:04:22.687Z,100.00
2023-03-19T20:06:57.160Z,100.00
2023-03-19T20:09:30.244Z,100.00
2023-03-19T20:12:03.834Z,100.00
2023-03-19T20:14:37.281Z,100.00
2023-03-19T20:17:15.350Z,100.00
2023-03-19T20:19:49.180Z,100.00
2023-03-19T20:22:23.678Z,100.00
2023-03-19T20:24:57.950Z,100.00
2023-03-19T20:27:34.124Z,100.00
2023-03-19T20:30:17.654Z,100.00
2023-03-19T20:32:53.019Z,100.00
2023-03-19T20:35:28.872Z,100.00
2023-03-19T20:38:05.788Z,100.00
2023-03-19T20:40:44.110Z,100.00
2023-03-19T20:43:37.429Z,100.00
2023-03-19T20:46:12.502Z,100.00
2023-03-19T20:48:45.801Z,100.00
2023-03-19T20:51:23.081Z,100.00
2023-03-19T20:53:58.813Z,100.00
2023-03-19T20:56:32.031Z,100.00
2023-03-19T20:59:05.692Z,100.00
2023-03-19T21:01:38.781Z,100.00
2023-03-19T21:04:20.876Z,100.00
2023-03-19T21:06:54.493Z,100.00
2023-03-19T21:09:29.075Z,100.00
2023-03-19T21:12:02.280Z,100.00
2023-03-19T21:14:35.402Z,100.00
2023-03-19T21:17:08.438Z,100.00
2023-03-19T21:19:42.745Z,100.00
2023-03-19T21:22:22.120Z,100.00
2023-03-19T21:25:04.795Z,100.00
2023-03-19T21:27:38.439Z,100.00
2023-03-19T21:30:16.531Z,100.00
2023-03-19T21:32:51.521Z,100.00
2023-03-19T21:35:26.490Z,100.00
2023-03-19T21:37:59.547Z,100.00
2023-03-19T21:40:34.147Z,100.00
2023-03-19T21:43:07.595Z,100.00
2023-03-19T21:45:41.286Z,100.00
2023-03-19T21:48:25.214Z,100.00
2023-03-19T21:50:59.230Z,100.00
2023-03-19T21:53:32.364Z,100.00
2023-03-19T21:56:18.905Z,100.00
2023-03-19T21:58:53.471Z,100.00
2023-03-19T22:01:27.578Z,100.00
2023-03-19T22:04:00.891Z,100.00
2023-03-19T22:06:34.094Z,100.00
2023-03-19T22:09:07.543Z,100.00
2023-03-19T22:11:42.605Z,100.00
2023-03-19T22:14:19.095Z,100.00
2023-03-19T22:16:55.472Z,100.00
2023-03-19T22:19:29.170Z,100.00
2023-03-19T22:22:02.274Z,100.00
2023-03-19T22:24:35.290Z,100.00
2023-03-19T22:27:16.929Z,100.00
2023-03-19T22:29:50.244Z,100.00
2023-03-19T22:32:23.259Z,100.00
2023-03-19T22:34:56.418Z,100.00
2023-03-19T22:37:31.576Z,100.00
2023-03-19T22:40:05.135Z,100.00
2023-03-19T22:42:39.648Z,100.00
2023-03-19T22:45:27.038Z,100.00
2023-03-19T22:48:01.754Z,100.00
2023-03-19T22:50:34.837Z,100.00
2023-03-19T22:53:22.271Z,100.00
2023-03-19T22:55:55.545Z,100.00
2023-03-19T22:58:30.427Z,100.00
2023-03-19T23:01:03.569Z,100.00
2023-03-19T23:03:36.996Z,100.00
2023-03-19T23:06:29.235Z,100.00
2023-03-19T23:09:03.451Z,100.00
2023-03-19T23:11:39.369Z,100.00
2023-03-19T23:14:28.033Z,100.00
2023-03-19T23:17:07.340Z,100.00
2023-03-19T23:19:40.385Z,100.00
2023-03-19T23:22:17.388Z,100.00
2023-03-19T23:24:50.624Z,100.00
2023-03-19T23:27:26.640Z,100.00
2023-03-19T23:30:01.130Z,100.00
2023-03-19T23:32:34.252Z,100.00
2023-03-19T23:35:16.207Z,100.00
2023-03-19T23:37:49.405Z,100.00
2023-03-19T23:40:24.520Z,100.00
2023-03-19T23:42:59.127Z,100.00
2023-03-19T23:45:39.993Z,100.00
2023-03-19T23:48:16.814Z,100.00
2023-03-19T23:50:50.607Z,100.00
2023-03-19T23:53:27.183Z,100.00
2023-03-19T23:56:03.463Z,100.00
2023-03-19T23:58:42.885Z,100.00
